Time;durP1;ratioP1;P1;durP2;ratioP2;P2;SDS_P1;SDS_P2;PMS_P1;PMS_P2;Temp;Humidity;BMP_temperature;BMP_pressure;BME280_temperature;BME280_humidity;BME280_pressure;Samples;Min_cycle;Max_cycle;Signal;HPM_P1;HPM_P2
2023/10/22 00:01:53;;;;;;;0.40;0.27;;;11.20;99.90;;;;;;5015435;28;20224;-85
2023/10/22 00:04:19;;;;;;;0.40;0.37;;;14.60;99.90;;;;;;5018186;28;20174;-84
2023/10/22 00:06:45;;;;;;;0.40;0.40;;;11.20;99.90;;;;;;5014684;28;20200;-83
2023/10/22 00:09:10;;;;;;;0.40;0.20;;;11.20;99.90;;;;;;5018170;28;20464;-84
2023/10/22 00:11:36;;;;;;;0.70;0.70;;;;;;;;;;5020692;28;20189;-85
2023/10/22 00:14:03;;;;;;;0.40;0.20;;;11.10;99.90;;;;;;5017531;28;20212;-84
2023/10/22 00:16:29;;;;;;;0.43;0.32;;;11.00;99.90;;;;;;5017751;28;20471;-86
2023/10/22 00:18:54;;;;;;;0.40;0.20;;;11.00;99.90;;;;;;5020819;28;20210;-86
2023/10/22 00:21:20;;;;;;;0.40;0.20;;;10.80;99.90;;;;;;5011463;28;20233;-82
2023/10/22 00:23:46;;;;;;;0.40;0.23;;;;;;;;;;5012500;28;20590;-82
2023/10/22 00:26:14;;;;;;;0.40;0.20;;;10.80;99.90;;;;;;5013055;28;20204;-81
2023/10/22 00:28:40;;;;;;;0.63;0.63;;;10.90;99.90;;;;;;5013510;28;20558;-84
2023/10/22 00:31:05;;;;;;;0.40;0.30;;;10.90;99.90;;;;;;5018956;28;20693;-85
2023/10/22 00:33:31;;;;;;;1.00;1.00;;;10.90;99.90;;;;;;5031943;28;20226;-84
2023/10/22 00:35:58;;;;;;;0.40;0.20;;;10.90;99.90;;;;;;5016826;28;20583;-84
2023/10/22 00:38:24;;;;;;;0.55;0.55;;;10.90;99.90;;;;;;5015866;28;20193;-83
2023/10/22 00:40:50;;;;;;;0.40;0.20;;;10.90;99.90;;;;;;5027857;28;20257;-80
2023/10/22 00:43:15;;;;;;;0.50;0.40;;;10.90;99.90;;;;;;5020888;28;20305;-85
2023/10/22 00:45:41;;;;;;;0.40;0.20;;;11.00;99.90;;;;;;5018269;28;20194;-82
2023/10/22 00:48:09;;;;;;;0.50;0.50;;;10.90;99.90;;;;;;5011461;28;20771;-83
2023/10/22 00:50:35;;;;;;;0.40;0.20;;;10.90;99.90;;;;;;5024991;28;20452;-83
2023/10/22 00:53:03;;;;;;;0.40;0.23;;;10.90;99.90;;;;;;5026350;28;20202;-85
2023/10/22 00:55:29;;;;;;;0.40;0.30;;;10.90;99.90;;;;;;5021300;28;20463;-81
2023/10/22 00:57:57;;;;;;;0.75;0.75;;;10.90;99.90;;;;;;5027479;28;20186;-81
2023/10/22 01:00:23;;;;;;;1.05;0.95;;;10.90;99.90;;;;;;5013158;28;20212;-81
2023/10/22 01:02:49;;;;;;;0.40;0.20;;;10.90;99.90;;;;;;5032283;28;20190;-81
2023/10/22 01:05:14;;;;;;;0.40;0.20;;;10.90;99.90;;;;;;5013070;28;21075;-80
2023/10/22 01:07:40;;;;;;;0.40;0.20;;;;;;;;;;5011482;28;20181;-80
2023/10/22 01:10:06;;;;;;;0.40;0.27;;;10.90;99.90;;;;;;5013588;28;20599;-79
2023/10/22 01:12:37;;;;;;;0.40;0.30;;;10.90;99.90;;;;;;5007830;28;20798;-83
2023/10/22 01:15:06;;;;;;;0.38;0.28;;;10.90;99.90;;;;;;5022009;28;20455;-81
2023/10/22 01:17:32;;;;;;;0.40;0.20;;;10.90;99.90;;;;;;5033840;28;21097;-86
2023/10/22 01:19:58;;;;;;;0.40;0.30;;;;;;;;;;5011405;28;20217;-83
2023/10/22 01:22:24;;;;;;;0.53;0.53;;;10.80;99.90;;;;;;5013328;28;20444;-81
2023/10/22 01:24:50;;;;;;;0.40;0.30;;;;;;;;;;5029702;28;20440;-83
2023/10/22 01:27:15;;;;;;;0.93;0.93;;;10.80;99.90;;;;;;5019751;28;20208;-83
2023/10/22 01:29:41;;;;;;;1.63;0.50;;;10.80;99.90;;;;;;5018276;28;20492;-83
2023/10/22 01:32:07;;;;;;;0.40;0.30;;;10.90;99.90;;;;;;5017189;28;20185;-81
2023/10/22 01:34:33;;;;;;;0.40;0.30;;;10.80;99.90;;;;;;5010663;28;20174;-84
2023/10/22 01:36:58;;;;;;;1.00;0.43;;;10.80;99.90;;;;;;5015624;28;20209;-83
2023/10/22 01:39:24;;;;;;;0.40;0.20;;;10.80;99.90;;;;;;5013655;28;20224;-79
2023/10/22 01:41:50;;;;;;;0.40;0.30;;;10.80;99.90;;;;;;5012488;28;20209;-81
2023/10/22 01:44:16;;;;;;;0.40;0.20;;;10.70;99.90;;;;;;5025205;28;20751;-81
2023/10/22 01:46:42;;;;;;;0.40;0.30;;;;;;;;;;5035228;28;20217;-82
2023/10/22 01:49:08;;;;;;;0.40;0.40;;;10.70;99.90;;;;;;5022193;28;20280;-83
2023/10/22 01:51:34;;;;;;;0.40;0.20;;;10.70;99.90;;;;;;5029500;28;20811;-83
2023/10/22 01:54:01;;;;;;;0.40;0.27;;;;;;;;;;5031982;28;20746;-83
2023/10/22 01:56:26;;;;;;;0.40;0.22;;;10.60;99.90;;;;;;5012783;28;20204;-83
2023/10/22 01:58:52;;;;;;;0.40;0.30;;;;;;;;;;5015346;28;20229;-81
2023/10/22 02:01:18;;;;;;;0.70;0.60;;;10.70;99.90;;;;;;5028875;28;20202;-81
2023/10/22 02:03:46;;;;;;;0.40;0.30;;;10.60;99.90;;;;;;5012661;28;20448;-84
2023/10/22 02:06:13;;;;;;;0.40;0.20;;;10.60;99.90;;;;;;5011360;28;20480;-81
2023/10/22 02:08:39;;;;;;;0.40;0.30;;;10.60;99.90;;;;;;5014246;28;20582;-84
2023/10/22 02:11:05;;;;;;;0.40;0.30;;;10.60;99.90;;;;;;5030677;28;20186;-84
2023/10/22 02:13:31;;;;;;;0.40;0.30;;;;;;;;;;5017984;28;21973;-82
2023/10/22 02:15:57;;;;;;;0.40;0.30;;;10.50;99.90;;;;;;5021895;28;20296;-84
2023/10/22 02:18:23;;;;;;;0.40;0.40;;;;;;;;;;5015348;28;20254;-83
2023/10/22 02:20:55;;;;;;;0.40;0.20;;;10.40;99.90;;;;;;5014772;28;20444;-82
2023/10/22 02:23:21;;;;;;;0.40;0.30;;;10.20;99.90;;;;;;5014137;28;20196;-84
2023/10/22 02:25:48;;;;;;;0.40;0.20;;;10.10;99.90;;;;;;5034666;28;20236;-84
2023/10/22 02:28:13;;;;;;;0.40;0.20;;;10.10;99.90;;;;;;5018861;28;20229;-84
2023/10/22 02:30:39;;;;;;;0.60;0.60;;;10.10;99.90;;;;;;5021475;28;21018;-82
2023/10/22 02:33:04;;;;;;;0.40;0.30;;;10.20;99.90;;;;;;5015153;28;20669;-82
2023/10/22 02:35:30;;;;;;;0.40;0.30;;;10.20;99.90;;;;;;5009459;28;20220;-84
2023/10/22 02:37:56;;;;;;;0.40;0.20;;;10.20;99.90;;;;;;5014042;28;20232;-84
2023/10/22 02:40:22;;;;;;;0.30;0.20;;;;;;;;;;5012207;28;20680;-81
2023/10/22 02:42:48;;;;;;;0.40;0.30;;;;;;;;;;5012011;28;20185;-80
2023/10/22 02:45:14;;;;;;;0.40;0.20;;;;;;;;;;5018076;28;20205;-85
2023/10/22 02:47:40;;;;;;;0.40;0.30;;;10.20;99.90;;;;;;5012842;28;20436;-80
2023/10/22 02:50:05;;;;;;;0.33;0.20;;;10.30;99.90;;;;;;5014216;28;21513;-85
2023/10/22 02:52:31;;;;;;;0.40;0.30;;;;;;;;;;5046081;28;20242;-80
2023/10/22 02:54:57;;;;;;;0.30;0.20;;;10.30;99.90;;;;;;5033245;28;20452;-84
2023/10/22 02:57:22;;;;;;;0.40;0.30;;;10.40;99.90;;;;;;5018672;28;20543;-84
2023/10/22 02:59:48;;;;;;;0.40;0.30;;;10.30;99.90;;;;;;5036948;28;20739;-82
2023/10/22 03:02:13;;;;;;;0.40;0.20;;;10.30;99.90;;;;;;5010116;28;20190;-83
2023/10/22 03:04:39;;;;;;;0.40;0.30;;;10.20;99.90;;;;;;5012873;28;20198;-82
2023/10/22 03:07:05;;;;;;;0.40;0.30;;;;;;;;;;5008270;28;20197;-83
2023/10/22 03:09:32;;;;;;;0.30;0.20;;;10.10;99.90;;;;;;5014189;28;22796;-82
2023/10/22 03:11:57;;;;;;;0.40;0.30;;;;;;;;;;5018209;28;20479;-79
2023/10/22 03:14:23;;;;;;;0.40;0.30;;;10.00;99.90;;;;;;5036581;28;20201;-81
2023/10/22 03:16:48;;;;;;;0.40;0.20;;;10.00;99.90;;;;;;5017659;28;20472;-81
2023/10/22 03:19:14;;;;;;;0.40;0.30;;;10.00;99.90;;;;;;5012590;28;20659;-81
2023/10/22 03:21:41;;;;;;;0.30;0.20;;;;;;;;;;5014259;28;21099;-83
2023/10/22 03:24:09;;;;;;;0.40;0.30;;;10.00;99.90;;;;;;5015184;28;20755;-81
2023/10/22 03:26:36;;;;;;;0.40;0.30;;;10.00;99.90;;;;;;5020362;28;20604;-78
2023/10/22 03:29:02;;;;;;;0.40;0.30;;;10.00;99.90;;;;;;5011885;28;20210;-84
2023/10/22 03:31:28;;;;;;;0.40;0.40;;;10.10;99.90;;;;;;5021357;28;20196;-83
2023/10/22 03:33:53;;;;;;;0.33;0.20;;;10.10;99.90;;;;;;5043177;28;20472;-83
2023/10/22 03:36:19;;;;;;;0.40;0.30;;;;;;;;;;5025141;28;20201;-82
2023/10/22 03:38:45;;;;;;;0.40;0.20;;;10.00;99.90;;;;;;5020865;28;20265;-84
2023/10/22 03:41:10;;;;;;;0.40;0.30;;;10.00;99.90;;;;;;5024587;28;20510;-83
2023/10/22 03:43:36;;;;;;;0.40;0.20;;;;;;;;;;5032879;28;20185;-84
2023/10/22 03:46:03;;;;;;;0.40;0.27;;;10.00;99.90;;;;;;5020423;28;20216;-83
2023/10/22 03:48:29;;;;;;;0.40;0.30;;;10.00;99.90;;;;;;5016606;28;20444;-83
2023/10/22 03:50:55;;;;;;;0.40;0.30;;;10.00;99.90;;;;;;5016117;28;20223;-86
2023/10/22 03:53:24;;;;;;;0.37;0.30;;;;;;;;;;5020191;28;20188;-81
2023/10/22 03:55:50;;;;;;;0.40;0.22;;;9.90;99.90;;;;;;5014091;28;20217;-78
2023/10/22 03:58:16;;;;;;;0.50;0.50;;;9.80;99.90;;;;;;5015288;28;20197;-84
2023/10/22 04:00:41;;;;;;;0.33;0.20;;;9.80;99.90;;;;;;5012478;28;20782;-83
2023/10/22 04:03:07;;;;;;;0.40;0.20;;;9.70;99.90;;;;;;5022748;28;20258;-86
2023/10/22 04:05:33;;;;;;;0.50;0.40;;;9.70;99.90;;;;;;5023521;28;20210;-83
2023/10/22 04:07:59;;;;;;;0.37;0.20;;;9.70;99.90;;;;;;5030085;28;20660;-80
2023/10/22 04:10:25;;;;;;;0.35;0.30;;;9.60;99.90;;;;;;5012910;28;20202;-81
2023/10/22 04:12:50;;;;;;;0.40;0.30;;;9.70;99.90;;;;;;5022087;28;20189;-85
2023/10/22 04:15:16;;;;;;;0.33;0.20;;;9.70;99.90;;;;;;5031325;28;20877;-81
2023/10/22 04:17:44;;;;;;;0.40;0.20;;;9.70;99.90;;;;;;5010796;28;20630;-84
2023/10/22 04:20:10;;;;;;;0.40;0.30;;;9.80;99.90;;;;;;5015579;28;20720;-83
2023/10/22 04:22:36;;;;;;;0.40;0.30;;;9.80;99.90;;;;;;5027871;28;20733;-80
2023/10/22 04:25:02;;;;;;;0.33;0.23;;;;;;;;;;5014166;28;20289;-85
2023/10/22 04:27:27;;;;;;;0.30;0.20;;;9.80;99.90;;;;;;5009201;28;20950;-85
2023/10/22 04:29:53;;;;;;;0.40;0.20;;;9.80;99.90;;;;;;5021367;28;20494;-80
2023/10/22 04:32:18;;;;;;;0.30;0.20;;;9.80;99.90;;;;;;5040159;28;20216;-84
2023/10/22 04:34:43;;;;;;;0.40;0.30;;;9.70;99.90;;;;;;5028605;28;20189;-84
2023/10/22 04:37:10;;;;;;;0.30;0.20;;;9.70;99.90;;;;;;5014548;28;20217;-82
2023/10/22 04:39:36;;;;;;;0.30;0.20;;;9.70;99.90;;;;;;5032404;28;20236;-80
2023/10/22 04:42:01;;;;;;;0.40;0.30;;;9.70;99.90;;;;;;5017240;28;20565;-79
2023/10/22 04:44:27;;;;;;;0.30;0.30;;;9.60;99.90;;;;;;5012746;28;20186;-83
2023/10/22 04:46:52;;;;;;;0.40;0.30;;;9.60;99.90;;;;;;5016706;28;20223;-80
2023/10/22 04:49:18;;;;;;;0.40;0.30;;;9.60;99.90;;;;;;5012745;28;20224;-82
2023/10/22 04:51:44;;;;;;;0.40;0.30;;;9.50;99.90;;;;;;5013608;28;20193;-83
2023/10/22 04:54:10;;;;;;;0.30;0.20;;;;;;;;;;5008289;28;20197;-79
2023/10/22 04:56:35;;;;;;;0.40;0.30;;;9.30;99.90;;;;;;5009488;28;20213;-80
2023/10/22 04:59:01;;;;;;;0.40;0.30;;;9.30;99.90;;;;;;5012692;28;20221;-81
2023/10/22 05:01:27;;;;;;;0.40;0.30;;;9.30;99.90;;;;;;5011212;28;20361;-81
2023/10/22 05:03:53;;;;;;;4.70;1.43;;;;;;;;;;5013464;28;20177;-84
2023/10/22 05:06:18;;;;;;;0.40;0.30;;;9.30;99.90;;;;;;5011976;28;20188;-84
2023/10/22 05:08:44;;;;;;;0.40;0.20;;;9.30;99.90;;;;;;5022618;28;20539;-81
2023/10/22 05:11:14;;;;;;;0.40;0.20;;;9.30;99.90;;;;;;5017257;28;20192;-82
2023/10/22 05:13:40;;;;;;;0.40;0.30;;;9.10;99.90;;;;;;5027966;28;21390;-83
2023/10/22 05:16:07;;;;;;;0.40;0.20;;;9.20;99.90;;;;;;5012349;28;20213;-82
2023/10/22 05:18:33;;;;;;;0.40;0.20;;;;;;;;;;5021650;28;20190;-83
2023/10/22 05:21:06;;;;;;;0.40;0.30;;;9.30;99.90;;;;;;5008331;28;20184;-79
2023/10/22 05:23:35;;;;;;;0.30;0.20;;;9.40;99.90;;;;;;5012342;28;20498;-81
2023/10/22 05:26:09;;;;;;;0.40;0.20;;;9.40;99.90;;;;;;5025641;28;20204;-83
2023/10/22 05:28:35;;;;;;;0.55;0.50;;;;;;;;;;5006601;28;20204;-81
2023/10/22 05:31:01;;;;;;;0.40;0.30;;;9.40;99.90;;;;;;5011097;28;20189;-82
2023/10/22 05:33:27;;;;;;;0.40;0.30;;;;;;;;;;5030392;28;21068;-80
2023/10/22 05:35:52;;;;;;;0.40;0.33;;;9.40;99.90;;;;;;5012588;28;20220;-83
2023/10/22 05:38:18;;;;;;;0.40;0.30;;;9.50;99.90;;;;;;5035314;28;20435;-81
2023/10/22 05:40:43;;;;;;;0.40;0.30;;;9.50;99.90;;;;;;5015993;28;20949;-84
2023/10/22 05:43:09;;;;;;;0.40;0.23;;;9.50;99.90;;;;;;5030934;28;20216;-82
2023/10/22 05:45:35;;;;;;;0.40;0.23;;;9.60;99.90;;;;;;5018334;28;20690;-84
2023/10/22 05:48:00;;;;;;;0.40;0.20;;;9.60;99.90;;;;;;5012963;28;20189;-79
2023/10/22 05:50:26;;;;;;;0.30;0.20;;;9.50;99.90;;;;;;5016241;28;20810;-84
2023/10/22 05:52:52;;;;;;;0.40;0.20;;;9.50;99.90;;;;;;5021552;28;20236;-84
2023/10/22 05:55:18;;;;;;;0.30;0.20;;;;;;;;;;5023647;28;20225;-84
2023/10/22 05:57:45;;;;;;;0.40;0.20;;;9.40;99.90;;;;;;5016265;28;20213;-82
2023/10/22 06:00:12;;;;;;;0.30;0.20;;;9.40;99.90;;;;;;5017758;28;20798;-83
2023/10/22 06:02:37;;;;;;;0.40;0.38;;;9.40;99.90;;;;;;5035755;28;20257;-79
2023/10/22 06:05:04;;;;;;;0.30;0.20;;;9.40;99.90;;;;;;5037168;28;20389;-83
2023/10/22 06:07:29;;;;;;;0.55;0.55;;;9.50;99.90;;;;;;5011591;28;20181;-83
2023/10/22 06:09:55;;;;;;;0.40;0.30;;;10.80;99.90;;;;;;5019190;28;20224;-82
2023/10/22 06:12:20;;;;;;;0.33;0.20;;;9.50;99.90;;;;;;5020306;28;20193;-84
2023/10/22 06:14:46;;;;;;;0.40;0.20;;;9.50;99.90;;;;;;5020007;28;20189;-82
2023/10/22 06:17:12;;;;;;;0.40;0.20;;;;;;;;;;5022208;28;20225;-81
2023/10/22 06:19:38;;;;;;;0.30;0.20;;;9.60;99.90;;;;;;5023630;28;20300;-82
2023/10/22 06:22:04;;;;;;;0.40;0.30;;;9.70;99.90;;;;;;5038071;28;20276;-83
2023/10/22 06:24:29;;;;;;;0.40;0.20;;;9.70;99.90;;;;;;5034885;28;20177;-84
2023/10/22 06:26:55;;;;;;;0.40;0.20;;;9.70;99.90;;;;;;5027900;28;20196;-86
2023/10/22 06:29:20;;;;;;;0.40;0.20;;;9.80;99.90;;;;;;5028029;28;20196;-84
2023/10/22 06:31:46;;;;;;;0.40;0.20;;;9.90;99.90;;;;;;5022754;28;20654;-84
2023/10/22 06:34:12;;;;;;;0.40;0.20;;;9.90;99.90;;;;;;5019028;28;20240;-84
2023/10/22 06:36:37;;;;;;;0.40;0.30;;;;;;;;;;5010623;28;20266;-83
2023/10/22 06:39:03;;;;;;;0.40;0.20;;;10.40;99.90;;;;;;5018129;28;20667;-83
2023/10/22 06:41:29;;;;;;;0.40;0.20;;;;;;;;;;5013071;28;20444;-85
2023/10/22 06:43:55;;;;;;;0.40;0.30;;;;;;;;;;5022682;28;20197;-82
2023/10/22 06:46:21;;;;;;;0.50;0.40;;;;;;;;;;5029293;28;20443;-83
2023/10/22 06:48:48;;;;;;;0.40;0.20;;;13.70;99.90;;;;;;5019424;28;20468;-81
2023/10/22 06:51:17;;;;;;;0.60;0.50;;;13.70;99.90;;;;;;5023595;28;21207;-82
2023/10/22 06:53:46;;;;;;;0.40;0.20;;;14.70;99.90;;;;;;5030181;28;20996;-79
2023/10/22 06:56:13;;;;;;;0.40;0.30;;;15.70;99.90;;;;;;5030079;28;20476;-82
2023/10/22 06:58:39;;;;;;;0.40;0.30;;;;;;;;;;5022653;28;20432;-82
2023/10/22 07:01:05;;;;;;;0.40;0.30;;;16.30;99.90;;;;;;5015750;28;20439;-81
2023/10/22 07:03:31;;;;;;;0.40;0.20;;;;;;;;;;5024668;28;20470;-79
2023/10/22 07:05:57;;;;;;;0.40;0.20;;;16.20;99.90;;;;;;5031267;28;20468;-82
2023/10/22 07:08:23;;;;;;;0.97;0.80;;;;;;;;;;5027636;28;20443;-82
2023/10/22 07:10:49;;;;;;;0.40;0.30;;;;;;;;;;5020582;28;21132;-81
2023/10/22 07:13:15;;;;;;;0.40;0.30;;;16.50;99.90;;;;;;5023457;28;20453;-81
2023/10/22 07:15:41;;;;;;;0.40;0.20;;;15.90;99.90;;;;;;5027181;28;20542;-80
2023/10/22 07:18:07;;;;;;;2.50;0.87;;;15.80;99.90;;;;;;5026156;28;21209;-83
2023/10/22 07:20:32;;;;;;;0.40;0.30;;;16.20;99.90;;;;;;5045928;28;20253;-81
2023/10/22 07:23:01;;;;;;;0.40;0.20;;;16.10;99.90;;;;;;5032038;28;20193;-79
2023/10/22 07:25:27;;;;;;;0.40;0.20;;;;;;;;;;5037383;28;20181;-83
2023/10/22 07:27:53;;;;;;;0.40;0.30;;;;;;;;;;5029413;28;20445;-81
2023/10/22 07:30:18;;;;;;;0.40;0.20;;;;;;;;;;5021242;28;21041;-82
2023/10/22 07:32:44;;;;;;;0.40;0.20;;;16.50;99.90;;;;;;5023594;28;20436;-82
2023/10/22 07:35:10;;;;;;;0.40;0.20;;;16.60;99.90;;;;;;5019697;28;20444;-81
2023/10/22 07:37:37;;;;;;;0.40;0.20;;;16.60;99.90;;;;;;5022101;28;21488;-83
2023/10/22 07:40:03;;;;;;;0.40;0.30;;;16.20;99.90;;;;;;5016186;28;20591;-82
2023/10/22 07:42:29;;;;;;;0.40;0.30;;;;;;;;;;5020106;28;20518;-83
2023/10/22 07:44:55;;;;;;;0.40;0.30;;;;;;;;;;5028528;28;21116;-81
2023/10/22 07:47:20;;;;;;;0.40;0.30;;;16.40;99.90;;;;;;5029994;28;21158;-82
2023/10/22 07:49:51;;;;;;;0.40;0.30;;;16.20;99.90;;;;;;5021876;28;20577;-82
2023/10/22 07:52:18;;;;;;;0.40;0.30;;;17.10;99.90;;;;;;5037936;28;20193;-78
2023/10/22 07:54:47;;;;;;;0.90;0.77;;;17.10;99.90;;;;;;5023881;28;20476;-82
2023/10/22 07:57:13;;;;;;;0.50;0.47;;;16.70;99.90;;;;;;5022974;28;20507;-83
2023/10/22 07:59:38;;;;;;;0.40;0.23;;;16.50;99.90;;;;;;5020932;28;20522;-83
2023/10/22 08:02:04;;;;;;;0.40;0.20;;;;;;;;;;5027393;28;20467;-81
2023/10/22 08:04:30;;;;;;;0.40;0.30;;;;;;;;;;5042515;28;20228;-80
2023/10/22 08:06:56;;;;;;;0.40;0.20;;;16.90;99.90;;;;;;5028986;28;20443;-83
2023/10/22 08:09:22;;;;;;;0.40;0.30;;;16.80;99.90;;;;;;5022560;28;20464;-82
2023/10/22 08:11:48;;;;;;;0.63;0.57;;;;;;;;;;5030566;28;20305;-81
2023/10/22 08:14:14;;;;;;;0.50;0.50;;;;;;;;;;5024362;28;20523;-84
2023/10/22 08:16:39;;;;;;;0.40;0.30;;;16.60;99.90;;;;;;5014432;28;20472;-81
2023/10/22 08:19:05;;;;;;;0.40;0.20;;;17.10;99.90;;;;;;5027115;28;20600;-80
2023/10/22 08:21:31;;;;;;;0.40;0.30;;;17.40;99.90;;;;;;5029254;28;20212;-80
2023/10/22 08:23:56;;;;;;;0.40;0.30;;;17.60;99.90;;;;;;5020954;28;20210;-84
2023/10/22 08:26:23;;;;;;;0.40;0.30;;;;;;;;;;5005782;28;20617;-81
2023/10/22 08:28:49;;;;;;;0.40;0.30;;;;;;;;;;5015218;28;20200;-83
2023/10/22 08:31:15;;;;;;;0.40;0.20;;;;;;;;;;5021495;28;20446;-80
2023/10/22 08:33:41;;;;;;;0.40;0.30;;;;;;;;;;5020985;28;21185;-81
2023/10/22 08:36:08;;;;;;;0.40;0.30;;;24.20;95.20;;;;;;5014579;28;20474;-82
2023/10/22 08:38:34;;;;;;;0.40;0.30;;;;;;;;;;5021392;28;20461;-82
2023/10/22 08:41:01;;;;;;;0.40;0.20;;;;;;;;;;5016439;28;20443;-80
2023/10/22 08:43:30;;;;;;;0.40;0.30;;;21.20;93.10;;;;;;5028718;28;20487;-84
2023/10/22 08:45:56;;;;;;;0.40;0.30;;;;;;;;;;5029018;28;20433;-82
2023/10/22 08:48:24;;;;;;;0.40;0.20;;;17.80;99.30;;;;;;5026973;28;20440;-83
2023/10/22 08:50:52;;;;;;;0.40;0.30;;;17.70;99.70;;;;;;5007342;28;20502;-81
2023/10/22 08:53:18;;;;;;;0.40;0.30;;;16.80;99.90;;;;;;5010709;28;20446;-82
2023/10/22 08:55:46;;;;;;;0.40;0.20;;;16.80;99.90;;;;;;5019993;28;20474;-83
2023/10/22 08:58:15;;;;;;;0.40;0.30;;;16.90;99.90;;;;;;5036106;28;20192;-84
2023/10/22 09:00:47;;;;;;;0.40;0.30;;;16.80;99.90;;;;;;5007712;28;20464;-83
2023/10/22 09:03:14;;;;;;;0.40;0.30;;;18.70;99.90;;;;;;5019098;28;20573;-84
2023/10/22 09:05:40;;;;;;;0.40;0.20;;;;;;;;;;5024575;28;20513;-83
2023/10/22 09:08:06;;;;;;;0.40;0.30;;;;;;;;;;5014890;28;20494;-83
2023/10/22 09:10:32;;;;;;;0.40;0.20;;;;;;;;;;5017421;28;20452;-83
2023/10/22 09:13:07;;;;;;;0.40;0.30;;;20.20;99.90;;;;;;5016459;28;20463;-86
2023/10/22 09:15:37;;;;;;;0.40;0.30;;;21.90;99.90;;;;;;5021751;28;20482;-81
2023/10/22 09:18:04;;;;;;;0.40;0.30;;;;;;;;;;5040158;28;20470;-84
2023/10/22 09:20:30;;;;;;;0.40;0.30;;;;;;;;;;5015191;28;20451;-84
2023/10/22 09:23:14;;;;;;;0.50;0.40;;;19.30;97.10;;;;;;5020208;28;20522;-84
2023/10/22 09:25:40;;;;;;;0.40;0.23;;;;;;;;;;5025474;28;20432;-82
2023/10/22 09:28:32;;;;;;;0.40;0.30;;;18.70;99.90;;;;;;5026379;28;20966;-81
2023/10/22 09:30:59;;;;;;;3.90;2.67;;;18.50;98.80;;;;;;5013503;28;21067;-81
2023/10/22 09:33:32;;;;;;;0.40;0.30;;;18.50;99.10;;;;;;5024201;28;20533;-84
2023/10/22 09:36:02;;;;;;;0.40;0.20;;;18.60;99.60;;;;;;5014738;28;20475;-84
2023/10/22 09:38:47;;;;;;;0.40;0.23;;;19.30;99.90;;;;;;5033774;28;20619;-82
2023/10/22 09:41:29;;;;;;;0.40;0.20;;;19.10;97.80;;;;;;5021830;28;20477;-83
2023/10/22 09:43:57;;;;;;;1.33;0.80;;;19.30;99.20;;;;;;5033281;28;20456;-83
2023/10/22 09:46:32;;;;;;;0.87;0.87;;;18.70;98.70;;;;;;5026224;28;20440;-78
2023/10/22 09:48:59;;;;;;;0.40;0.30;;;18.20;98.40;;;;;;4995044;28;20455;-80
2023/10/22 09:51:30;;;;;;;0.87;0.83;;;17.40;98.80;;;;;;5035372;28;20439;-85
2023/10/22 09:53:56;;;;;;;0.40;0.30;;;17.20;99.90;;;;;;5044658;28;20444;-79
2023/10/22 09:56:23;;;;;;;0.50;0.40;;;16.90;99.90;;;;;;5043009;28;20469;-80
2023/10/22 09:59:07;;;;;;;0.40;0.20;;;16.90;99.90;;;;;;5041419;28;20463;-80
2023/10/22 10:01:34;;;;;;;0.40;0.30;;;16.70;99.90;;;;;;5051177;28;20526;-83
2023/10/22 10:04:03;;;;;;;0.40;0.20;;;17.20;99.90;;;;;;5031781;28;20443;-79
2023/10/22 10:06:30;;;;;;;0.40;0.23;;;17.30;99.90;;;;;;5029699;28;20912;-83
2023/10/22 10:08:57;;;;;;;0.90;0.70;;;17.40;99.90;;;;;;5029158;28;20539;-86
2023/10/22 10:11:25;;;;;;;0.50;0.40;;;17.40;99.90;;;;;;5044915;28;20467;-83
2023/10/22 10:13:51;;;;;;;0.40;0.20;;;;;;;;;;5034103;28;21072;-83
2023/10/22 10:16:16;;;;;;;0.40;0.23;;;17.30;99.90;;;;;;5030277;28;20541;-80
2023/10/22 10:19:04;;;;;;;0.40;0.23;;;16.90;99.90;;;;;;5044249;28;20531;-82
2023/10/22 10:21:38;;;;;;;0.40;0.20;;;16.80;99.90;;;;;;5027717;28;20194;-86
2023/10/22 10:24:23;;;;;;;0.40;0.30;;;16.70;99.90;;;;;;5030390;28;20428;-81
2023/10/22 10:26:50;;;;;;;0.40;0.20;;;16.80;99.90;;;;;;5028265;28;20456;-82
2023/10/22 10:29:25;;;;;;;0.40;0.30;;;16.80;99.90;;;;;;5030613;28;20460;-82
2023/10/22 10:31:52;;;;;;;1.10;0.80;;;16.90;99.90;;;;;;5031292;28;20467;-78
2023/10/22 10:34:39;;;;;;;0.40;0.30;;;16.90;99.90;;;;;;5047925;28;20444;-81
2023/10/22 10:37:09;;;;;;;0.40;0.30;;;16.80;99.90;;;;;;5038711;28;20467;-78
2023/10/22 10:39:40;;;;;;;0.40;0.20;;;16.70;99.90;;;;;;5033173;28;20463;-82
2023/10/22 10:42:06;;;;;;;0.40;0.30;;;;;;;;;;5043428;28;20543;-80
2023/10/22 10:44:32;;;;;;;0.40;0.20;;;16.80;99.90;;;;;;5042646;28;20445;-79
2023/10/22 10:47:33;;;;;;;0.83;0.83;;;17.00;99.90;;;;;;5026873;28;20441;-80
2023/10/22 10:50:06;;;;;;;0.40;0.30;;;17.30;99.90;;;;;;5027603;28;20485;-80
2023/10/22 10:52:52;;;;;;;0.80;0.70;;;18.40;99.90;;;;;;5027268;28;20431;-80
2023/10/22 10:55:20;;;;;;;0.40;0.20;;;18.20;99.90;;;;;;5043979;28;20442;-78
2023/10/22 10:57:48;;;;;;;0.40;0.20;;;;;;;;;;5042025;28;20475;-82
2023/10/22 11:00:20;;;;;;;0.40;0.30;;;17.70;99.90;;;;;;5034883;28;20468;-81
2023/10/22 11:02:48;;;;;;;0.40;0.20;;;17.40;99.90;;;;;;5033566;28;20446;-83
2023/10/22 11:05:15;;;;;;;0.40;0.30;;;17.80;99.90;;;;;;5053113;28;20443;-81
2023/10/22 11:07:43;;;;;;;1.37;1.27;;;17.80;99.90;;;;;;5052939;28;20463;-82
2023/10/22 11:10:09;;;;;;;0.40;0.20;;;;;;;;;;5038185;28;20490;-79
2023/10/22 11:12:37;;;;;;;0.40;0.30;;;18.20;99.90;;;;;;5033287;28;20444;-79
2023/10/22 11:15:02;;;;;;;0.40;0.30;;;18.10;99.90;;;;;;5031765;28;20493;-85
2023/10/22 11:17:28;;;;;;;0.40;0.20;;;;;;;;;;5040356;28;20750;-81
2023/10/22 11:19:54;;;;;;;0.40;0.30;;;;;;;;;;5040294;28;20214;-80
2023/10/22 11:22:20;;;;;;;0.40;0.20;;;;;;;;;;5026962;28;20451;-77
2023/10/22 11:24:47;;;;;;;0.40;0.20;;;18.20;98.90;;;;;;5028115;28;21094;-80
2023/10/22 11:27:14;;;;;;;0.40;0.30;;;16.90;98.90;;;;;;5034948;28;20466;-77
2023/10/22 11:29:44;;;;;;;0.40;0.20;;;16.60;99.90;;;;;;5042903;28;21053;-83
2023/10/22 11:32:12;;;;;;;0.40;0.20;;;16.60;99.90;;;;;;5033486;28;20444;-84
2023/10/22 11:34:46;;;;;;;0.50;0.50;;;16.50;99.90;;;;;;5028967;28;20439;-81
2023/10/22 11:37:12;;;;;;;0.40;0.30;;;16.50;99.90;;;;;;5026500;28;20463;-80
2023/10/22 11:39:38;;;;;;;0.40;0.30;;;16.60;99.90;;;;;;5028380;28;20465;-79
2023/10/22 11:42:07;;;;;;;0.40;0.30;;;16.50;99.90;;;;;;5029200;28;20219;-80
2023/10/22 11:44:35;;;;;;;0.97;0.97;;;16.20;99.90;;;;;;5028582;28;20417;-83
2023/10/22 11:47:03;;;;;;;0.40;0.20;;;16.20;99.90;;;;;;5033878;28;20453;-80
2023/10/22 11:49:28;;;;;;;0.40;0.20;;;16.10;99.90;;;;;;5059586;28;20468;-76
2023/10/22 11:51:54;;;;;;;0.40;0.30;;;;;;;;;;5042436;28;20505;-81
2023/10/22 11:54:37;;;;;;;0.40;0.20;;;16.50;99.90;;;;;;5036437;28;20243;-79
2023/10/22 11:57:03;;;;;;;0.63;0.50;;;16.50;99.90;;;;;;5035687;28;20479;-82
2023/10/22 11:59:29;;;;;;;0.40;0.20;;;;;;;;;;5032583;28;20491;-82
2023/10/22 12:01:55;;;;;;;0.40;0.30;;;;;;;;;;5030082;28;20461;-83
2023/10/22 12:04:21;;;;;;;0.40;0.30;;;;;;;;;;5033569;28;20477;-79
2023/10/22 12:06:47;;;;;;;0.40;0.20;;;;;;;;;;5032498;28;21549;-78
2023/10/22 12:09:14;;;;;;;0.40;0.20;;;;;;;;;;5036517;28;21221;-84
2023/10/22 12:11:39;;;;;;;0.40;0.30;;;17.20;99.90;;;;;;5033960;28;20437;-83
2023/10/22 12:14:05;;;;;;;0.60;0.60;;;17.10;99.90;;;;;;5038125;28;20485;-78
2023/10/22 12:16:30;;;;;;;0.40;0.30;;;17.10;99.90;;;;;;5032941;28;20877;-81
2023/10/22 12:18:56;;;;;;;0.40;0.30;;;;;;;;;;5028095;28;20208;-80
2023/10/22 12:21:22;;;;;;;0.40;0.20;;;17.20;99.90;;;;;;5028106;28;20250;-81
2023/10/22 12:23:47;;;;;;;0.40;0.23;;;17.50;99.90;;;;;;5034387;28;20452;-82
2023/10/22 12:26:13;;;;;;;0.40;0.30;;;;;;;;;;5032582;28;20219;-86
2023/10/22 12:28:39;;;;;;;0.40;0.30;;;18.20;99.90;;;;;;5034347;28;20198;-83
2023/10/22 12:31:07;;;;;;;0.40;0.30;;;18.10;99.70;;;;;;5047259;28;20439;-85
2023/10/22 12:33:33;;;;;;;0.40;0.30;;;;;;;;;;5030153;28;20200;-84
2023/10/22 12:36:02;;;;;;;0.40;0.20;;;18.10;99.90;;;;;;5027778;28;20491;-86
2023/10/22 12:38:28;;;;;;;0.40;0.30;;;;;;;;;;5035889;28;20440;-83
2023/10/22 12:40:54;;;;;;;0.50;0.40;;;;;;;;;;5033600;28;20458;-81
2023/10/22 12:43:20;;;;;;;0.40;0.30;;;;;;;;;;5036157;28;20435;-86
2023/10/22 12:45:46;;;;;;;0.40;0.30;;;;;;;;;;5041071;28;20428;-80
2023/10/22 12:48:12;;;;;;;0.40;0.20;;;;;;;;;;5038548;28;20435;-86
2023/10/22 12:50:38;;;;;;;0.40;0.20;;;;;;;;;;5031048;28;20479;-80
2023/10/22 12:53:04;;;;;;;0.40;0.20;;;17.00;99.90;;;;;;5032466;28;20452;-81
2023/10/22 12:55:30;;;;;;;0.40;0.30;;;;;;;;;;5029003;28;20936;-81
2023/10/22 12:57:56;;;;;;;0.40;0.20;;;;;;;;;;5037801;28;20484;-85
2023/10/22 13:00:22;;;;;;;0.40;0.30;;;17.00;99.90;;;;;;5024725;28;20452;-84
2023/10/22 13:02:48;;;;;;;0.50;0.40;;;17.10;99.90;;;;;;5034212;28;20454;-82
2023/10/22 13:05:14;;;;;;;5.10;1.60;;;;;;;;;;5032008;28;20449;-81
2023/10/22 13:07:40;;;;;;;0.40;0.30;;;16.90;99.90;;;;;;5034805;28;20186;-83
2023/10/22 13:10:06;;;;;;;0.40;0.20;;;16.80;99.90;;;;;;5033386;28;20459;-84
2023/10/22 13:12:32;;;;;;;0.40;0.20;;;;;;;;;;5043899;28;20575;-84
2023/10/22 13:14:58;;;;;;;0.40;0.23;;;;;;;;;;5022241;28;20189;-85